Aérodrome :
LOGIN :

S'inscrire | Disclaimer

   EN    FR    IT 

 










Légende :    VFR   VFR Marginal   IFR   IFR Intensif   IFR Très Intensif
Visi : 
Plafond : 
>= 8 km
>= 3000ft
5 à 8 km
1000 à 3000 ft
1500m à 5 km
500 à 1000 ft
800 à 1500m
200 à 500 ft
< 800m
< 200 ft
Symboles :   Orages  Brouillard  Fortes neiges  Fortes précipitations  Vent > 20 kt
SIGMETs :   Divers  Orages  Givrage  Turbulence  Onde Orograph.  Cendres Volcan.







- Altitude de l'aérodrome : 22 ft
- Code IATA : LDY
- Voir les cartes d'approche


EGAE - Londonderry Eglington

DERNIER METAR :
  • 131250Z 22013KT 9999 VCSH FEW010 FEW018CB SCT034 04/02 Q0986

METARs EXPIRÉS :
  • 131220Z 22013KT 9999 VCSH FEW010 FEW015CB SCT028 04/02 Q0987
  • 131150Z 22012KT 9999 VCSH FEW015 FEW025CB BKN040 04/02 Q0988
  • 131120Z 22012KT 9999 VCSH FEW011 SCT018CB 03/02 Q0988
  • 131050Z 24012KT 9999 VCSH FEW011 BKN018 04/03 Q0988
  • 131020Z 24009KT 9999 VCSH FEW011 SCT038 03/02 Q0988

TAF TAF EGAE
Valide du 13 à 12h jusqu'au 13 à 21h UTC


131056Z 1312/1321 25012KT 9999 FEW010 SCT018
TEMPO 1312/1321 28018G28KT 3000 SHRASN SHGS BKN008 BKN012CB
PROB30
TEMPO 1312/1321 +TSGS BKN004
PROB30
TEMPO 1315/1320 0500 +SHSN VV///
Pas de NOTAMs connus pour ce terrain.



MET'MAP, la Météo Aéronautique d'un coup d'oeil ! - Copyright ORBIFLY Décembre 2007 - Disclaimer

ORBIFLY MET'MAP TEAM :

Programmation & Développement : Alexandra Zaïnal
Conception & Développement : Baudouin d'Aumeries
Co-Programmation & Développement : Marc-Olivier Méhu
Soutien technique & logistique : Manuel Goepfert

Contact : metmap@orbifly.com




SOURCES & CREDITS :

   NOAA